Time;durP1;ratioP1;P1;durP2;ratioP2;P2;SDS_P1;SDS_P2;PMS_P1;PMS_P2;Temp;Humidity;BMP_temperature;BMP_pressure;BME280_temperature;BME280_humidity;BME280_pressure;Samples;Min_cycle;Max_cycle;Signal;HPM_P1;HPM_P2
2022/06/24 00:01:53;;;;;;;8.83;4.30;;;13.70;1.00;;;;;;4418857;28;656896;-63
2022/06/24 00:04:40;;;;;;;8.77;3.97;;;13.70;99.90;;;;;;4375086;28;656481;-63
2022/06/24 00:07:27;;;;;;;8.50;4.20;;;13.70;1.00;;;;;;4415010;28;657926;-63
2022/06/24 00:10:15;;;;;;;10.90;4.40;;;13.80;1.00;;;;;;4408391;28;655078;-63
2022/06/24 00:13:04;;;;;;;11.80;3.90;;;13.90;18.20;;;;;;4418497;28;657893;-63
2022/06/24 00:15:51;;;;;;;9.83;3.80;;;14.10;99.90;;;;;;4387930;28;657870;-63
2022/06/24 00:18:38;;;;;;;13.30;4.30;;;14.20;1.00;;;;;;4417562;28;658455;-63
2022/06/24 00:21:25;;;;;;;10.20;4.27;;;14.20;1.00;;;;;;4399968;28;656571;-64
2022/06/24 00:24:21;;;;;;;7.23;3.90;;;14.30;51.40;;;;;;4417995;28;657200;-63
2022/06/24 00:27:17;;;;;;;14.57;4.40;;;14.30;83.30;;;;;;4389521;28;658054;-63
2022/06/24 00:30:13;;;;;;;9.33;3.70;;;14.40;99.90;;;;;;4387122;28;657624;-63
2022/06/24 00:33:14;;;;;;;12.83;4.30;;;14.50;99.90;;;;;;4371336;28;657061;-63
2022/06/24 00:36:01;;;;;;;14.80;4.40;;;14.60;99.90;;;;;;4367549;28;658404;-64
2022/06/24 00:38:51;;;;;;;12.13;3.90;;;14.70;99.90;;;;;;4399483;28;658500;-64
2022/06/24 00:41:38;;;;;;;15.83;4.37;;;14.70;99.90;;;;;;4388295;28;659061;-63
2022/06/24 00:44:27;;;;;;;6.03;3.73;;;14.80;99.90;;;;;;4394709;28;657281;-63
2022/06/24 00:47:16;;;;;;;10.97;3.93;;;14.80;99.90;;;;;;4413222;28;656453;-63
2022/06/24 00:50:04;;;;;;;9.97;3.73;;;14.70;99.90;;;;;;4387709;28;658658;-63
2022/06/24 00:52:53;;;;;;;7.17;3.77;;;14.60;99.90;;;;;;4393980;28;656978;-64
2022/06/24 00:55:41;;;;;;;10.37;4.17;;;14.40;99.90;;;;;;4403074;28;657000;-64
2022/06/24 00:58:28;;;;;;;8.07;3.97;;;14.20;99.90;;;;;;4412961;28;658725;-63
2022/06/24 01:01:16;;;;;;;9.87;3.93;;;14.10;99.90;;;;;;4394217;28;656075;-63
2022/06/24 01:04:07;;;;;;;8.83;4.17;;;13.80;99.90;;;;;;4415599;28;658044;-63
2022/06/24 01:06:54;;;;;;;9.27;4.57;;;13.80;99.90;;;;;;4387600;28;656535;-63
2022/06/24 01:09:42;;;;;;;11.33;4.57;;;13.80;99.90;;;;;;4390476;28;656180;-63
2022/06/24 01:12:30;;;;;;;9.10;4.67;;;13.80;99.90;;;;;;4409147;28;657984;-63
2022/06/24 01:15:17;;;;;;;11.93;4.00;;;13.80;99.90;;;;;;4386496;28;657542;-64
2022/06/24 01:18:05;;;;;;;10.67;4.33;;;13.70;99.90;;;;;;4406471;28;657475;-63
2022/06/24 01:20:54;;;;;;;10.10;4.50;;;13.40;99.90;;;;;;4409959;28;659397;-63
2022/06/24 01:23:43;;;;;;;11.03;4.60;;;13.30;99.90;;;;;;4395379;28;658404;-63
2022/06/24 01:26:30;;;;;;;9.67;4.47;;;13.30;99.90;;;;;;4404439;28;657529;-63
2022/06/24 01:29:17;;;;;;;8.38;4.60;;;13.20;99.90;;;;;;4416446;28;655994;-63
2022/06/24 01:32:05;;;;;;;9.40;4.30;;;13.20;99.90;;;;;;4414435;28;656846;-63
2022/06/24 01:34:53;;;;;;;14.23;4.57;;;13.10;99.90;;;;;;4388579;28;658335;-63
2022/06/24 01:37:40;;;;;;;6.53;4.00;;;13.10;99.90;;;;;;4391855;28;658681;-64
2022/06/24 01:40:28;;;;;;;8.55;3.88;;;13.00;99.90;;;;;;4415584;28;656672;-63
2022/06/24 01:43:16;;;;;;;9.30;4.20;;;13.00;99.90;;;;;;4393746;28;656409;-64
2022/06/24 01:46:03;;;;;;;9.47;4.30;;;13.00;99.90;;;;;;4413936;28;657612;-63
2022/06/24 01:48:50;;;;;;;11.03;4.50;;;13.10;99.90;;;;;;4400664;28;656679;-63
2022/06/24 01:51:38;;;;;;;9.80;4.43;;;13.00;99.90;;;;;;4415090;28;657613;-63
2022/06/24 01:54:25;;;;;;;7.87;4.20;;;13.00;99.90;;;;;;4404961;28;656364;-63
2022/06/24 01:57:14;;;;;;;5.97;4.23;;;13.10;99.90;;;;;;4418621;28;655848;-63
2022/06/24 02:00:01;;;;;;;8.17;4.30;;;13.00;99.90;;;;;;4393350;28;656731;-63
2022/06/24 02:02:48;;;;;;;10.07;4.43;;;12.80;99.90;;;;;;4415837;28;656390;-63
2022/06/24 02:05:35;;;;;;;9.23;4.25;;;12.80;99.90;;;;;;4391683;28;657274;-64
2022/06/24 02:08:22;;;;;;;8.33;4.53;;;12.80;99.90;;;;;;4416752;28;656381;-63
2022/06/24 02:14:15;;;;;;;7.03;4.23;;;12.60;99.90;;;;;;4389478;28;656385;-63
2022/06/24 02:17:03;;;;;;;8.03;4.30;;;12.60;99.90;;;;;;4385336;28;657688;-63
2022/06/24 02:19:50;;;;;;;5.57;3.40;;;12.70;99.90;;;;;;4390489;28;656519;-63
2022/06/24 02:22:38;;;;;;;8.82;4.03;;;12.60;99.90;;;;;;4418320;28;656424;-63
2022/06/24 02:25:25;;;;;;;9.47;3.93;;;12.70;99.90;;;;;;4403891;28;656576;-64
2022/06/24 02:28:12;;;;;;;8.03;3.90;;;12.70;99.90;;;;;;4417903;28;655687;-63
2022/06/24 02:31:01;;;;;;;5.53;3.83;;;12.60;99.90;;;;;;4415790;28;656344;-63
2022/06/24 02:33:48;;;;;;;10.07;4.00;;;12.60;99.90;;;;;;4391029;28;656919;-63
2022/06/24 02:36:35;;;;;;;8.82;3.85;;;12.70;99.90;;;;;;4394708;28;658367;-63
2022/06/24 02:39:22;;;;;;;7.60;3.90;;;12.90;99.90;;;;;;4401645;28;656071;-64
2022/06/24 02:42:09;;;;;;;7.03;4.37;;;12.90;99.90;;;;;;4415548;28;656674;-63
2022/06/24 02:44:56;;;;;;;6.77;4.37;;;13.20;99.90;;;;;;4394420;28;657508;-63
2022/06/24 02:47:45;;;;;;;6.70;3.70;;;13.10;99.90;;;;;;4416551;28;657265;-63
2022/06/24 02:50:32;;;;;;;8.57;3.93;;;12.90;99.90;;;;;;4397171;28;657282;-63
2022/06/24 02:53:19;;;;;;;5.67;3.97;;;12.90;99.90;;;;;;4417235;28;657045;-64
2022/06/24 02:56:07;;;;;;;5.17;3.30;;;12.90;99.90;;;;;;4393945;28;656968;-63
2022/06/24 02:58:55;;;;;;;8.33;3.83;;;12.90;99.90;;;;;;4411841;28;657475;-64
2022/06/24 03:01:42;;;;;;;7.82;3.67;;;12.80;99.90;;;;;;4419475;28;656025;-63
2022/06/24 03:04:31;;;;;;;8.73;4.23;;;12.90;99.90;;;;;;4415381;28;657335;-63
2022/06/24 03:07:18;;;;;;;7.27;3.67;;;12.90;99.90;;;;;;4393812;28;658360;-64
2022/06/24 03:10:06;;;;;;;7.23;3.93;;;12.90;99.90;;;;;;4399676;28;656536;-63
2022/06/24 03:12:53;;;;;;;11.00;3.53;;;12.90;99.90;;;;;;4414270;28;656932;-63
2022/06/24 03:15:41;;;;;;;6.10;3.90;;;13.00;99.90;;;;;;4397598;28;658858;-64
2022/06/24 03:18:28;;;;;;;8.33;4.10;;;13.00;99.90;;;;;;4421198;28;658021;-63
2022/06/24 03:21:16;;;;;;;5.03;3.78;;;13.00;99.90;;;;;;4400601;28;656368;-63
2022/06/24 03:24:04;;;;;;;7.47;3.77;;;13.00;99.90;;;;;;4414945;28;657346;-64
2022/06/24 03:26:51;;;;;;;4.83;3.20;;;13.20;99.90;;;;;;4397970;28;656520;-64
2022/06/24 03:29:38;;;;;;;6.40;3.40;;;13.30;99.90;;;;;;4414746;28;657467;-63
2022/06/24 03:32:25;;;;;;;7.00;3.33;;;13.50;99.90;;;;;;4395845;28;656975;-64
2022/06/24 03:35:13;;;;;;;7.80;3.30;;;13.90;99.90;;;;;;4412927;28;657747;-64
2022/06/24 03:38:02;;;;;;;3.70;3.13;;;14.00;99.90;;;;;;4378563;28;656707;-64
2022/06/24 03:40:49;;;;;;;8.37;3.17;;;14.00;99.90;;;;;;4408627;28;657031;-63
2022/06/24 03:43:36;;;;;;;5.50;3.00;;;14.20;99.90;;;;;;4397374;28;656665;-64
2022/06/24 03:46:23;;;;;;;4.83;3.40;;;14.20;99.90;;;;;;4417475;28;657245;-64
2022/06/24 03:49:10;;;;;;;4.70;3.40;;;14.20;99.90;;;;;;4395880;28;656724;-64
2022/06/24 03:51:57;;;;;;;5.47;3.10;;;14.30;99.90;;;;;;4418057;28;656848;-64
2022/06/24 03:54:46;;;;;;;9.20;3.30;;;14.30;99.90;;;;;;4416969;28;657604;-64
2022/06/24 03:57:33;;;;;;;4.30;3.17;;;14.40;99.90;;;;;;4394341;28;657072;-64
2022/06/24 04:00:20;;;;;;;5.40;3.10;;;14.50;99.90;;;;;;4395408;28;656505;-64
2022/06/24 04:03:07;;;;;;;6.77;3.30;;;14.60;99.90;;;;;;4417921;28;657233;-64
2022/06/24 04:05:54;;;;;;;7.00;3.33;;;14.60;99.90;;;;;;4412158;28;657537;-64
2022/06/24 04:08:41;;;;;;;5.23;3.20;;;14.70;99.90;;;;;;4397428;28;658212;-64
2022/06/24 04:11:30;;;;;;;7.87;3.23;;;14.80;99.90;;;;;;4412009;28;656874;-64
2022/06/24 04:15:13;;;;;;;4.73;3.23;;;14.90;99.90;;;;;;4397661;28;657444;-64
2022/06/24 04:17:25;;;;;;;4.80;3.17;;;15.00;99.90;;;;;;4395218;28;658214;-64
2022/06/24 04:20:13;;;;;;;6.90;3.33;;;15.30;99.90;;;;;;4411544;28;657204;-64
2022/06/24 04:23:00;;;;;;;5.03;3.10;;;15.50;99.90;;;;;;4394021;28;656725;-64
2022/06/24 04:25:47;;;;;;;5.03;3.13;;;15.70;99.90;;;;;;4421385;28;656818;-64
2022/06/24 04:28:36;;;;;;;11.93;3.03;;;16.10;99.90;;;;;;4412175;28;656756;-64
2022/06/24 04:31:23;;;;;;;4.80;3.00;;;16.30;99.90;;;;;;4390944;28;658432;-64
2022/06/24 04:34:10;;;;;;;4.77;2.87;;;16.40;99.90;;;;;;4392680;28;656747;-64
2022/06/24 04:36:57;;;;;;;4.95;2.90;;;16.60;99.90;;;;;;4416363;28;656519;-64
2022/06/24 04:39:44;;;;;;;9.70;3.20;;;16.80;99.90;;;;;;4416972;28;656929;-64
2022/06/24 04:42:32;;;;;;;5.83;3.43;;;16.90;99.90;;;;;;4396819;28;657470;-64
2022/06/24 04:45:20;;;;;;;8.47;3.50;;;17.00;99.90;;;;;;4417219;28;656442;-64
2022/06/24 04:48:07;;;;;;;4.53;3.07;;;17.10;99.90;;;;;;4393707;28;657208;-64
2022/06/24 04:50:54;;;;;;;4.67;3.10;;;17.20;99.90;;;;;;4413833;28;656953;-64
2022/06/24 04:53:41;;;;;;;5.10;2.90;;;17.30;99.90;;;;;;4396432;28;656437;-64
2022/06/24 04:56:29;;;;;;;5.60;2.87;;;17.40;99.90;;;;;;4411327;28;657218;-64
2022/06/24 04:59:16;;;;;;;6.87;2.97;;;17.50;99.90;;;;;;4392762;28;656906;-64
2022/06/24 05:02:04;;;;;;;5.70;2.70;;;17.70;99.90;;;;;;4412952;28;657238;-64
2022/06/24 05:04:52;;;;;;;3.60;2.80;;;17.80;99.90;;;;;;4393193;28;657885;-64
2022/06/24 05:07:39;;;;;;;3.90;2.87;;;17.80;99.90;;;;;;4414131;28;656452;-64
2022/06/24 05:10:26;;;;;;;3.73;2.87;;;17.90;99.90;;;;;;4396965;28;657327;-64
2022/06/24 05:13:14;;;;;;;6.80;2.73;;;18.00;99.90;;;;;;4412912;28;657665;-64
2022/06/24 05:16:01;;;;;;;4.53;2.87;;;18.10;99.90;;;;;;4392282;28;656838;-65
2022/06/24 05:18:49;;;;;;;7.60;2.90;;;18.30;99.90;;;;;;4417634;28;656327;-64
2022/06/24 05:21:36;;;;;;;6.87;3.10;;;18.40;99.90;;;;;;4391693;28;656987;-64
2022/06/24 05:24:23;;;;;;;8.37;2.83;;;18.60;99.90;;;;;;4412624;28;657903;-64
2022/06/24 05:27:10;;;;;;;6.57;2.40;;;18.60;99.90;;;;;;4396241;28;656376;-64
2022/06/24 05:29:58;;;;;;;5.70;3.03;;;18.80;99.90;;;;;;4409614;28;657267;-64
2022/06/24 05:32:45;;;;;;;4.40;2.50;;;18.80;99.90;;;;;;4406140;28;656352;-65
2022/06/24 05:35:34;;;;;;;7.50;3.07;;;19.00;99.90;;;;;;4415894;28;656752;-64
2022/06/24 05:38:22;;;;;;;5.97;3.17;;;19.00;99.80;;;;;;4389037;28;656670;-64
2022/06/24 05:41:09;;;;;;;6.37;3.40;;;19.00;99.90;;;;;;4412439;28;655951;-64
2022/06/24 05:43:57;;;;;;;8.63;4.50;;;19.20;99.90;;;;;;4391916;28;656736;-64
2022/06/24 05:46:44;;;;;;;9.10;4.27;;;19.30;99.90;;;;;;4412606;28;655914;-64
2022/06/24 05:49:31;;;;;;;5.37;3.00;;;19.40;99.90;;;;;;4392094;28;656450;-64
2022/06/24 05:55:02;;;;;;;6.40;3.20;;;19.40;99.70;;;;;;4414718;28;656930;-64
2022/06/24 05:55:26;;;;;;;3.87;2.87;;;19.50;99.90;;;;;;4372778;28;656630;-64
2022/06/24 05:58:13;;;;;;;6.17;2.73;;;19.60;99.90;;;;;;4416110;28;657611;-64
2022/06/24 06:01:00;;;;;;;6.23;2.90;;;19.70;95.30;;;;;;4398447;28;657110;-64
2022/06/24 06:03:47;;;;;;;5.40;2.90;;;19.80;95.00;;;;;;4429903;28;656258;-65
2022/06/24 06:06:35;;;;;;;3.77;2.50;;;19.90;96.30;;;;;;4419881;28;656493;-65
2022/06/24 06:09:23;;;;;;;4.83;2.40;;;20.00;94.20;;;;;;4399026;28;658538;-65
2022/06/24 06:12:11;;;;;;;4.23;2.50;;;20.10;93.30;;;;;;4392041;28;656733;-64
2022/06/24 06:14:58;;;;;;;7.13;2.67;;;20.20;91.90;;;;;;4421028;28;657556;-65
2022/06/24 06:17:45;;;;;;;2.60;2.33;;;20.30;91.20;;;;;;4403098;28;656601;-65
2022/06/24 06:20:33;;;;;;;3.67;2.50;;;20.40;93.40;;;;;;4412625;28;657508;-65
2022/06/24 06:23:20;;;;;;;6.30;2.20;;;20.50;91.80;;;;;;4401903;28;656509;-65
2022/06/24 06:26:09;;;;;;;7.07;2.63;;;20.50;90.50;;;;;;4414051;28;656867;-65
2022/06/24 06:28:57;;;;;;;7.83;2.50;;;20.70;87.50;;;;;;4386695;28;656461;-65
2022/06/24 06:31:44;;;;;;;6.73;2.40;;;20.80;85.20;;;;;;4406654;28;657142;-65
2022/06/24 06:34:31;;;;;;;4.50;2.37;;;20.80;79.70;;;;;;4390966;28;657093;-65
2022/06/24 06:37:18;;;;;;;4.77;2.60;;;20.90;80.00;;;;;;4404790;28;657451;-65
2022/06/24 06:40:06;;;;;;;10.17;2.50;;;20.80;81.80;;;;;;4384693;28;656998;-65
2022/06/24 06:42:55;;;;;;;3.40;2.47;;;21.00;80.30;;;;;;4402573;28;658187;-64
2022/06/24 06:45:42;;;;;;;3.27;2.20;;;21.00;74.80;;;;;;4380667;28;657386;-65
2022/06/24 06:48:29;;;;;;;6.57;2.40;;;21.10;75.80;;;;;;4403046;28;656571;-65
2022/06/24 06:51:16;;;;;;;4.97;2.47;;;21.20;76.00;;;;;;4387800;28;658083;-65
2022/06/24 06:54:03;;;;;;;3.47;2.60;;;21.30;76.00;;;;;;4411190;28;657913;-65
2022/06/24 06:56:50;;;;;;;7.63;2.40;;;21.60;77.80;;;;;;4389215;28;656820;-65
2022/06/24 06:59:39;;;;;;;6.80;2.40;;;21.70;72.80;;;;;;4408121;28;658194;-65
2022/06/24 07:02:26;;;;;;;4.43;2.50;;;21.70;69.60;;;;;;4388499;28;656904;-65
2022/06/24 07:05:13;;;;;;;7.17;2.33;;;21.70;68.40;;;;;;4405358;28;658084;-65
2022/06/24 07:08:00;;;;;;;5.43;2.30;;;21.80;70.50;;;;;;4388027;28;656805;-65
2022/06/24 07:10:47;;;;;;;6.20;2.40;;;21.80;69.10;;;;;;4415074;28;656188;-65
2022/06/24 07:13:35;;;;;;;11.87;6.27;;;21.80;68.70;;;;;;4408695;28;656716;-65
2022/06/24 07:16:24;;;;;;;5.83;2.33;;;22.10;66.50;;;;;;4410935;28;657240;-65
2022/06/24 07:19:11;;;;;;;17.77;7.70;;;22.10;65.60;;;;;;4389324;28;656809;-65
2022/06/24 07:21:58;;;;;;;14.17;4.20;;;22.30;67.50;;;;;;4415383;28;658446;-65
2022/06/24 07:24:45;;;;;;;13.90;5.07;;;22.10;64.20;;;;;;4397674;28;657489;-65
2022/06/24 07:27:32;;;;;;;9.67;2.40;;;22.40;65.80;;;;;;4411971;28;658486;-65
2022/06/24 07:30:19;;;;;;;16.03;4.90;;;22.50;65.10;;;;;;4400242;28;657282;-65
2022/06/24 07:33:08;;;;;;;9.97;3.10;;;22.70;64.60;;;;;;4386308;28;658020;-65
2022/06/24 07:35:55;;;;;;;5.67;2.27;;;22.70;62.80;;;;;;4383764;28;656920;-65
2022/06/24 07:38:42;;;;;;;8.03;3.97;;;22.80;60.50;;;;;;4405826;28;656320;-65
2022/06/24 07:41:29;;;;;;;7.90;4.40;;;23.00;60.60;;;;;;4411146;28;656697;-65
2022/06/24 07:44:16;;;;;;;8.37;3.50;;;23.00;58.60;;;;;;4395477;28;657606;-65
2022/06/24 07:47:04;;;;;;;5.93;3.33;;;23.20;61.30;;;;;;4412763;28;657496;-65
2022/06/24 07:49:53;;;;;;;6.73;3.20;;;23.30;59.70;;;;;;4399294;28;656365;-66
2022/06/24 07:52:40;;;;;;;5.03;3.00;;;23.30;57.00;;;;;;4407413;28;656489;-65
2022/06/24 07:58:32;;;;;;;11.10;4.20;;;23.30;56.70;;;;;;4367838;28;657991;-65
2022/06/24 08:01:19;;;;;;;18.43;6.07;;;23.50;57.30;;;;;;4415260;28;657644;-65
2022/06/24 08:04:08;;;;;;;10.03;4.10;;;23.60;58.40;;;;;;4393788;28;657621;-66
2022/06/24 08:06:57;;;;;;;9.33;2.30;;;24.00;57.80;;;;;;4398500;28;657826;-66
2022/06/24 08:09:44;;;;;;;3.83;2.07;;;24.30;57.80;;;;;;4411420;28;656653;-65
2022/06/24 08:12:31;;;;;;;9.53;2.53;;;24.20;55.70;;;;;;4397351;28;656638;-65
2022/06/24 08:15:18;;;;;;;11.43;2.10;;;24.30;54.00;;;;;;4421555;28;656410;-66
2022/06/24 08:18:06;;;;;;;6.33;2.20;;;24.10;52.50;;;;;;4391970;28;657536;-66
2022/06/24 08:20:53;;;;;;;2.25;1.83;;;24.30;53.70;;;;;;4413032;28;657560;-65
2022/06/24 08:23:41;;;;;;;7.30;1.90;;;24.30;53.20;;;;;;4398831;28;656376;-65
2022/06/24 08:26:29;;;;;;;6.03;2.00;;;24.40;56.30;;;;;;4419019;28;657042;-65
2022/06/24 08:29:17;;;;;;;6.13;2.22;;;24.60;55.30;;;;;;4391291;28;656495;-65
2022/06/24 08:32:05;;;;;;;6.85;2.40;;;24.90;53.60;;;;;;4416208;28;656379;-65
2022/06/24 08:34:52;;;;;;;8.50;2.40;;;24.40;53.80;;;;;;4390815;28;657938;-66
2022/06/24 08:37:39;;;;;;;5.72;2.20;;;24.90;56.00;;;;;;4391306;28;656383;-65
2022/06/24 08:40:28;;;;;;;13.13;2.55;;;25.20;53.20;;;;;;4384970;28;656648;-66
2022/06/24 08:43:16;;;;;;;7.77;2.30;;;25.00;54.50;;;;;;4390140;28;658453;-65
2022/06/24 08:46:04;;;;;;;5.05;2.42;;;25.00;54.60;;;;;;4406297;28;656391;-66
2022/06/24 08:48:51;;;;;;;10.45;2.83;;;25.00;55.10;;;;;;4391296;28;656710;-66
2022/06/24 08:51:38;;;;;;;6.30;2.50;;;24.90;55.70;;;;;;4410585;28;658735;-66
2022/06/24 08:54:28;;;;;;;7.75;2.90;;;25.20;54.90;;;;;;4390034;28;656544;-66
2022/06/24 08:57:17;;;;;;;3.70;2.03;;;25.30;53.10;;;;;;4394913;28;656756;-65
2022/06/24 09:00:05;;;;;;;6.03;2.67;;;25.40;54.80;;;;;;4415714;28;656830;-66
2022/06/24 09:02:52;;;;;;;4.07;2.25;;;25.40;54.20;;;;;;4390219;28;657370;-66
2022/06/24 09:05:40;;;;;;;4.93;2.28;;;25.70;52.80;;;;;;4415297;28;656215;-66
2022/06/24 09:08:33;;;;;;;3.67;2.40;;;25.90;53.70;;;;;;4391518;28;656579;-66
2022/06/24 09:11:20;;;;;;;2.78;2.10;;;26.10;51.60;;;;;;4371371;28;656540;-66
2022/06/24 09:14:09;;;;;;;3.23;2.17;;;26.10;50.80;;;;;;4415773;28;657397;-66
2022/06/24 09:16:56;;;;;;;4.97;1.98;;;25.90;53.30;;;;;;4391239;28;656780;-66
2022/06/24 09:19:43;;;;;;;4.30;1.95;;;26.30;53.80;;;;;;4412356;28;656495;-65
2022/06/24 09:22:30;;;;;;;3.78;2.00;;;26.20;50.70;;;;;;4389588;28;657055;-66
2022/06/24 09:25:17;;;;;;;7.63;2.20;;;26.00;51.10;;;;;;4409211;28;657463;-66
2022/06/24 09:28:06;;;;;;;3.60;2.08;;;26.10;51.20;;;;;;4411538;28;656875;-66
2022/06/24 09:31:00;;;;;;;7.38;2.22;;;26.60;50.10;;;;;;4415359;28;657497;-66
2022/06/24 09:33:47;;;;;;;2.92;2.00;;;26.70;51.30;;;;;;4368267;28;656998;-66
2022/06/24 09:36:35;;;;;;;3.00;1.83;;;26.80;51.90;;;;;;4406493;28;656469;-66
2022/06/24 09:39:23;;;;;;;4.07;2.55;;;26.90;49.50;;;;;;4418323;28;657175;-66
2022/06/24 09:42:12;;;;;;;4.15;2.10;;;26.90;48.20;;;;;;4406136;28;657130;-66
2022/06/24 09:44:59;;;;;;;7.70;2.03;;;26.80;49.20;;;;;;4414610;28;656959;-66
2022/06/24 09:47:49;;;;;;;2.33;1.95;;;27.20;50.40;;;;;;4390691;28;656910;-66
2022/06/24 09:50:36;;;;;;;2.17;1.60;;;26.90;48.00;;;;;;4395423;28;656530;-66
2022/06/24 09:53:24;;;;;;;5.10;1.80;;;27.10;46.50;;;;;;4411733;28;657256;-66
2022/06/24 09:56:11;;;;;;;3.15;1.58;;;27.30;45.40;;;;;;4402690;28;656573;-66
2022/06/24 10:02:04;;;;;;;3.63;1.90;;;27.30;47.00;;;;;;4391993;28;656638;-66
2022/06/24 10:04:52;;;;;;;2.85;1.65;;;27.40;47.10;;;;;;4401496;28;656305;-66
2022/06/24 10:07:41;;;;;;;3.45;1.88;;;27.10;45.50;;;;;;4408327;28;656238;-66
2022/06/24 10:10:28;;;;;;;7.57;1.83;;;27.40;46.30;;;;;;4412792;28;656550;-66
2022/06/24 10:13:27;;;;;;;7.80;2.00;;;27.70;44.40;;;;;;4392875;28;657220;-66
2022/06/24 10:16:14;;;;;;;4.97;1.65;;;27.20;42.80;;;;;;4387979;28;657449;-65
2022/06/24 10:19:02;;;;;;;2.90;1.85;;;26.70;49.00;;;;;;4387764;28;656823;-66
2022/06/24 10:21:50;;;;;;;2.30;1.67;;;27.20;49.50;;;;;;4408601;28;659069;-66
2022/06/24 10:24:41;;;;;;;3.55;2.00;;;28.00;43.60;;;;;;4386362;28;657213;-66
2022/06/24 10:28:02;;;;;;;5.78;1.75;;;28.30;44.80;;;;;;4388043;28;657157;-66
2022/06/24 10:30:58;;;;;;;2.42;1.67;;;27.80;46.70;;;;;;4384255;28;657130;-66
2022/06/24 10:33:45;;;;;;;1.75;1.42;;;27.50;45.20;;;;;;4365347;28;656506;-66
2022/06/24 10:36:32;;;;;;;3.38;1.70;;;27.80;43.80;;;;;;4409134;28;657152;-66
2022/06/24 10:39:23;;;;;;;2.55;1.65;;;28.00;48.30;;;;;;4408090;28;656567;-66
2022/06/24 10:42:13;;;;;;;4.10;1.90;;;27.90;44.60;;;;;;4394408;28;656120;-66
2022/06/24 10:45:01;;;;;;;4.07;1.90;;;28.00;47.30;;;;;;4395365;28;656865;-66
2022/06/24 10:47:49;;;;;;;6.47;2.08;;;28.30;45.70;;;;;;4414733;28;657945;-66
2022/06/24 10:50:36;;;;;;;3.53;1.92;;;28.00;42.70;;;;;;4391971;28;656622;-66
2022/06/24 10:53:23;;;;;;;3.90;1.90;;;27.90;43.70;;;;;;4419844;28;656960;-66
2022/06/24 10:56:19;;;;;;;2.85;1.63;;;28.00;45.50;;;;;;4406557;28;657164;-66
2022/06/24 10:59:06;;;;;;;2.28;1.90;;;28.30;45.30;;;;;;4388710;28;656273;-66
2022/06/24 11:01:54;;;;;;;5.53;1.92;;;28.60;44.50;;;;;;4414422;28;656922;-66
2022/06/24 11:04:42;;;;;;;2.00;1.40;;;28.30;44.70;;;;;;4399116;28;656717;-66
2022/06/24 11:07:29;;;;;;;2.00;1.70;;;28.10;43.70;;;;;;4425225;28;656343;-66
2022/06/24 11:10:17;;;;;;;3.30;1.60;;;28.10;44.00;;;;;;4394734;28;656910;-66
2022/06/24 11:13:05;;;;;;;3.00;1.60;;;28.30;44.60;;;;;;4410922;28;656637;-66
2022/06/24 11:15:55;;;;;;;2.70;1.50;;;27.80;44.90;;;;;;4390315;28;657779;-65
2022/06/24 11:18:42;;;;;;;2.60;1.60;;;28.30;45.10;;;;;;4386123;28;656846;-66
2022/06/24 11:21:29;;;;;;;2.72;1.67;;;28.80;41.00;;;;;;4410642;28;656783;-66
2022/06/24 11:24:17;;;;;;;3.97;1.40;;;28.80;45.30;;;;;;4385689;28;657755;-66
2022/06/24 11:27:08;;;;;;;2.35;1.55;;;29.40;42.60;;;;;;4409944;28;656723;-66
2022/06/24 11:29:57;;;;;;;3.85;1.50;;;29.60;39.50;;;;;;4367420;28;656407;-66
2022/06/24 11:32:54;;;;;;;4.07;1.77;;;29.30;41.10;;;;;;4408357;28;656484;-66
2022/06/24 11:35:41;;;;;;;1.38;1.27;;;29.10;39.60;;;;;;4364383;28;657535;-66
2022/06/24 11:38:28;;;;;;;2.23;1.63;;;28.50;41.40;;;;;;4408929;28;657395;-66
2022/06/24 11:41:25;;;;;;;3.78;1.63;;;29.40;42.20;;;;;;4393008;28;657688;-66
2022/06/24 11:44:13;;;;;;;3.85;1.80;;;29.10;43.10;;;;;;4394456;28;657519;-66
2022/06/24 11:47:02;;;;;;;5.30;1.45;;;29.30;41.70;;;;;;4399078;28;656822;-66
2022/06/24 11:49:49;;;;;;;4.10;1.65;;;29.70;39.50;;;;;;4412678;28;656211;-66
2022/06/24 11:52:45;;;;;;;3.50;1.67;;;29.90;38.30;;;;;;4388894;28;656713;-66
2022/06/24 11:55:33;;;;;;;3.63;1.50;;;29.50;41.70;;;;;;4360235;28;657803;-66
2022/06/24 11:58:21;;;;;;;7.18;1.67;;;28.90;38.10;;;;;;4394212;28;656741;-66
2022/06/24 12:01:08;;;;;;;4.05;1.60;;;29.10;42.50;;;;;;4405262;28;657230;-66
2022/06/24 12:03:57;;;;;;;1.90;1.60;;;29.40;39.90;;;;;;4392645;28;656909;-66
2022/06/24 12:06:45;;;;;;;2.13;1.50;;;29.30;42.40;;;;;;4413191;28;657253;-66
2022/06/24 12:09:32;;;;;;;6.57;1.40;;;29.10;41.80;;;;;;4409092;28;658393;-66
2022/06/24 12:12:19;;;;;;;3.20;1.40;;;29.60;42.20;;;;;;4418293;28;657854;-66
2022/06/24 12:15:08;;;;;;;3.92;1.60;;;29.70;41.80;;;;;;4396035;28;656978;-66
2022/06/24 12:17:55;;;;;;;5.35;1.67;;;30.70;38.00;;;;;;4399157;28;657446;-66
2022/06/24 12:20:44;;;;;;;2.13;1.50;;;30.20;39.00;;;;;;4409962;28;656224;-66
2022/06/24 12:23:32;;;;;;;2.17;1.42;;;30.70;37.50;;;;;;4387172;28;656211;-66
2022/06/24 12:26:20;;;;;;;8.07;1.50;;;30.80;37.60;;;;;;4413316;28;657463;-66
2022/06/24 12:29:07;;;;;;;3.30;1.88;;;30.20;39.20;;;;;;4387862;28;656888;-66
2022/06/24 12:31:55;;;;;;;3.63;1.70;;;30.00;38.40;;;;;;4402647;28;656598;-66
2022/06/24 12:34:43;;;;;;;4.30;1.60;;;30.10;37.60;;;;;;4408486;28;657459;-66
2022/06/24 12:37:31;;;;;;;3.60;1.70;;;29.90;39.40;;;;;;4409788;28;656691;-66
2022/06/24 12:40:22;;;;;;;3.80;2.00;;;30.10;40.00;;;;;;4417664;28;656331;-66
2022/06/24 12:43:11;;;;;;;4.32;1.42;;;30.30;41.00;;;;;;4393147;28;657071;-66
2022/06/24 12:45:58;;;;;;;8.65;1.90;;;30.60;39.30;;;;;;4400188;28;657511;-66
2022/06/24 12:51:50;;;;;;;2.53;1.70;;;29.30;41.90;;;;;;4370481;28;656662;-66
2022/06/24 12:54:39;;;;;;;3.95;2.00;;;30.20;39.00;;;;;;4407559;28;657380;-66
2022/06/24 12:57:26;;;;;;;5.63;1.50;;;30.00;38.60;;;;;;4392074;28;656477;-66
2022/06/24 13:00:15;;;;;;;3.40;1.65;;;29.90;43.70;;;;;;4414039;28;656800;-66
2022/06/24 13:03:02;;;;;;;4.45;1.65;;;30.20;39.40;;;;;;4391627;28;657800;-66
2022/06/24 13:05:50;;;;;;;5.97;1.80;;;30.70;42.80;;;;;;4406206;28;656762;-66
2022/06/24 13:08:37;;;;;;;1.67;1.55;;;30.30;38.40;;;;;;4412136;28;656664;-66
2022/06/24 13:11:26;;;;;;;4.95;1.60;;;30.90;37.90;;;;;;4410502;28;656940;-66
2022/06/24 13:14:13;;;;;;;7.88;1.48;;;30.50;37.80;;;;;;4386393;28;657617;-66
2022/06/24 13:17:00;;;;;;;3.03;1.73;;;30.20;36.40;;;;;;4392865;28;656741;-66
2022/06/24 13:19:48;;;;;;;3.55;1.67;;;30.90;39.30;;;;;;4417513;28;656479;-66
2022/06/24 13:22:35;;;;;;;2.60;1.42;;;30.70;37.50;;;;;;4401516;28;656014;-66
2022/06/24 13:25:22;;;;;;;5.72;1.80;;;30.10;39.90;;;;;;4417666;28;657812;-66
2022/06/24 13:28:11;;;;;;;2.65;1.50;;;30.50;40.60;;;;;;4413114;28;656217;-66
2022/06/24 13:30:59;;;;;;;5.43;1.60;;;30.70;38.80;;;;;;4389318;28;657703;-66
2022/06/24 13:33:46;;;;;;;7.22;1.60;;;31.30;38.70;;;;;;4394976;28;657233;-66
2022/06/24 13:36:33;;;;;;;6.90;1.50;;;31.20;38.70;;;;;;4411732;28;657454;-66
2022/06/24 13:39:21;;;;;;;3.50;1.80;;;30.80;38.70;;;;;;4392394;28;656591;-66
2022/06/24 13:42:08;;;;;;;5.00;1.50;;;30.40;37.80;;;;;;4412819;28;657773;-66
2022/06/24 13:44:57;;;;;;;6.35;1.80;;;31.00;37.50;;;;;;4393683;28;656640;-65
2022/06/24 13:47:44;;;;;;;5.45;1.65;;;30.50;39.70;;;;;;4412234;28;656438;-65
2022/06/24 13:50:31;;;;;;;3.65;1.63;;;31.30;38.10;;;;;;4383910;28;656385;-65
2022/06/24 13:53:18;;;;;;;4.05;1.65;;;31.00;37.00;;;;;;4412417;28;657174;-66
2022/06/24 13:56:05;;;;;;;5.15;1.70;;;31.30;38.10;;;;;;4392857;28;657336;-65
2022/06/24 13:58:53;;;;;;;8.93;1.80;;;30.70;37.10;;;;;;4409940;28;657279;-65
2022/06/24 14:01:41;;;;;;;3.15;1.65;;;31.60;37.60;;;;;;4400477;28;656437;-65
2022/06/24 14:04:29;;;;;;;8.13;1.60;;;30.50;38.40;;;;;;4401237;28;656826;-66
2022/06/24 14:07:16;;;;;;;2.50;1.80;;;30.70;41.30;;;;;;4394058;28;656693;-65
2022/06/24 14:10:03;;;;;;;5.80;1.55;;;30.40;39.70;;;;;;4412799;28;657289;-66
2022/06/24 14:12:50;;;;;;;3.75;1.80;;;31.50;38.50;;;;;;4390137;28;658552;-65
2022/06/24 14:15:37;;;;;;;8.17;1.40;;;31.70;36.00;;;;;;4417276;28;656643;-65
2022/06/24 14:18:26;;;;;;;6.72;1.65;;;31.20;39.50;;;;;;4405031;28;656683;-65
2022/06/24 14:21:13;;;;;;;2.47;1.40;;;30.90;37.50;;;;;;4392632;28;657301;-65
2022/06/24 14:27:06;;;;;;;3.78;1.70;;;31.20;37.50;;;;;;4413397;28;656464;-65
2022/06/24 14:29:53;;;;;;;3.25;1.30;;;31.00;37.30;;;;;;4420663;28;657741;-65
2022/06/24 14:32:40;;;;;;;2.60;1.40;;;31.00;37.30;;;;;;4397492;28;658517;-65
2022/06/24 14:35:29;;;;;;;1.50;1.40;;;31.20;36.90;;;;;;4413771;28;657564;-65
2022/06/24 14:41:20;;;;;;;1.90;1.38;;;31.00;38.20;;;;;;4373088;28;657084;-65